Time;durP1;ratioP1;P1;durP2;ratioP2;P2;SDS_P1;SDS_P2;PMS_P1;PMS_P2;Temp;Humidity;BMP_temperature;BMP_pressure;BME280_temperature;BME280_humidity;BME280_pressure;Samples;Min_cycle;Max_cycle;Signal;HPM_P1;HPM_P2
2021/06/21 00:00:21;;;;;;;25.53;23.33;;;;;;;20.07;nan;98503.22;2095985;28;20483;-79
2021/06/21 00:01:21;;;;;;;25.53;23.47;;;;;;;20.07;nan;98500.53;2104540;28;20277;-79
2021/06/21 00:02:25;;;;;;;25.77;23.67;;;;;;;20.07;nan;98503.22;2104374;28;20456;-79
2021/06/21 00:03:26;;;;;;;25.23;23.17;;;;;;;20.05;nan;98492.78;2105379;28;20232;-79
2021/06/21 00:04:29;;;;;;;25.73;23.20;;;;;;;20.05;nan;98509.81;2105136;28;20452;-79
2021/06/21 00:05:30;;;;;;;26.03;23.87;;;;;;;20.03;nan;98512.09;2104082;28;20359;-79
2021/06/21 00:06:32;;;;;;;25.63;23.23;;;;;;;19.98;nan;98498.91;2104324;28;20456;-79
2021/06/21 00:07:32;;;;;;;25.27;22.80;;;;;;;19.99;nan;98508.59;2096176;28;20214;-79
2021/06/21 00:08:34;;;;;;;25.00;23.03;;;;;;;19.98;nan;98507.03;2095731;28;20452;-79
2021/06/21 00:09:35;;;;;;;24.93;22.73;;;;;;;19.99;nan;98508.59;2104531;28;20232;-79
2021/06/21 00:10:37;;;;;;;26.13;23.67;;;;;;;19.99;nan;98519.44;2104314;28;20467;-79
2021/06/21 00:11:38;;;;;;;25.93;23.60;;;;;;;19.98;nan;98501.63;2095866;28;20222;-78
2021/06/21 00:12:41;;;;;;;25.50;23.47;;;;;;;19.98;nan;98507.03;2104112;28;20479;-79
2021/06/21 00:13:42;;;;;;;26.77;24.00;;;;;;;19.94;nan;98500.81;2105064;28;20591;-79
2021/06/21 00:14:44;;;;;;;25.23;23.27;;;;;;;19.97;nan;98499.28;2105237;28;20444;-79
2021/06/21 00:15:45;;;;;;;25.87;23.40;;;;;;;19.96;nan;98505.84;2104099;28;20961;-79
2021/06/21 00:16:47;;;;;;;25.97;23.63;;;;;;;19.94;nan;98494.59;2104503;28;20868;-79
2021/06/21 00:17:48;;;;;;;25.50;23.47;;;;;;;19.94;nan;98486.47;2095864;28;20217;-79
2021/06/21 00:18:50;;;;;;;24.83;22.80;;;;;;;19.94;nan;98494.59;2104514;28;20479;-79
2021/06/21 00:19:52;;;;;;;25.20;23.03;;;;;;;19.94;nan;98498.09;2103866;28;20244;-79
2021/06/21 00:20:54;;;;;;;25.13;23.03;;;;;;;19.93;nan;98493.06;2104055;28;20459;-79
2021/06/21 00:21:54;;;;;;;24.97;23.00;;;;;;;19.93;nan;98488.41;2104225;28;20471;-79
2021/06/21 00:22:57;;;;;;;26.13;23.53;;;;;;;19.86;nan;98482.94;2096076;28;20496;-79
2021/06/21 00:23:58;;;;;;;25.53;23.13;;;;;;;19.91;nan;98489.94;2104503;28;20308;-79
2021/06/21 00:25:00;;;;;;;25.13;23.10;;;;;;;19.92;nan;98491.50;2104506;28;20969;-79
2021/06/21 00:26:00;;;;;;;25.17;23.10;;;;;;;19.90;nan;98482.97;2096115;28;20257;-79
2021/06/21 00:27:02;;;;;;;25.20;22.90;;;;;;;19.89;nan;98481.41;2104443;28;20444;-79
2021/06/21 00:28:03;;;;;;;25.30;23.30;;;;;;;19.86;nan;98482.94;2105112;28;20221;-79
2021/06/21 00:29:05;;;;;;;24.53;22.53;;;;;;;19.87;nan;98479.06;2105122;28;20484;-80
2021/06/21 00:30:09;;;;;;;25.47;23.13;;;;;;;19.91;nan;98485.31;2105088;28;20447;-79
2021/06/21 00:31:11;;;;;;;25.43;23.40;;;;;;;19.90;nan;98480.28;2103905;28;20524;-79
2021/06/21 00:32:13;;;;;;;25.73;23.37;;;;;;;19.90;nan;98488.38;2104508;28;20459;-79
2021/06/21 00:33:15;;;;;;;26.07;23.77;;;;;;;19.89;nan;98486.81;2105093;28;20452;-79
2021/06/21 00:34:16;;;;;;;26.37;23.30;;;;;;;19.87;nan;98479.06;2103976;28;20459;-79
2021/06/21 00:35:19;;;;;;;26.73;24.17;;;;;;;19.86;nan;98476.72;2095605;28;20440;-79
2021/06/21 00:36:20;;;;;;;26.27;23.80;;;;;;;19.87;nan;98483.69;2104324;28;20310;-79
2021/06/21 00:37:22;;;;;;;25.13;23.13;;;;;;;19.87;nan;98489.13;2104364;28;20443;-79
2021/06/21 00:38:23;;;;;;;26.87;23.60;;;;;;;19.86;nan;98482.94;2103846;28;20322;-79
2021/06/21 00:39:25;;;;;;;25.20;22.93;;;;;;;19.87;nan;98479.06;2095853;28;20449;-79
2021/06/21 00:40:26;;;;;;;24.90;23.00;;;;;;;19.86;nan;98472.09;2095886;28;20238;-79
2021/06/21 00:41:28;;;;;;;25.43;23.33;;;;;;;19.93;nan;98487.63;2095865;28;20946;-79
2021/06/21 00:42:28;;;;;;;25.37;23.07;;;;;;;19.92;nan;98470.63;2104125;28;20455;-80
2021/06/21 00:43:30;;;;;;;25.87;23.57;;;;;;;19.98;nan;98473.75;2105025;28;20467;-79
2021/06/21 00:44:31;;;;;;;25.67;23.57;;;;;;;19.90;nan;98455.91;2105127;28;20222;-80
2021/06/21 00:45:34;;;;;;;25.43;23.10;;;;;;;19.94;nan;98462.13;2105125;28;20961;-79
2021/06/21 00:46:34;;;;;;;24.90;22.60;;;;;;;19.97;nan;98451.31;2105262;28;20209;-80
2021/06/21 00:47:36;;;;;;;26.23;23.93;;;;;;;20.02;nan;98469.16;2105300;28;21037;-80
2021/06/21 00:48:37;;;;;;;26.33;24.07;;;;;;;19.94;nan;98456.69;2105088;28;20569;-80
2021/06/21 00:49:39;;;;;;;26.17;23.67;;;;;;;19.93;nan;98460.56;2103795;28;20451;-79
2021/06/21 00:50:41;;;;;;;26.50;24.20;;;;;;;19.98;nan;98462.91;2104211;28;20448;-79
2021/06/21 00:51:43;;;;;;;26.60;24.50;;;;;;;19.98;nan;98450.19;2103765;28;20518;-79
2021/06/21 00:52:45;;;;;;;27.10;24.40;;;;;;;19.98;nan;98462.91;2104368;28;20976;-79
2021/06/21 00:53:47;;;;;;;26.83;24.53;;;;;;;19.93;nan;98461.34;2104430;28;20444;-79
2021/06/21 00:54:59;;;;;;;25.57;23.27;;;;;;;19.87;nan;98451.22;2104473;28;20458;-80
2021/06/21 00:56:01;;;;;;;24.90;22.87;;;;;;;19.85;nan;98453.53;2104738;28;20454;-79
2021/06/21 00:57:02;;;;;;;25.00;22.90;;;;;;;19.80;nan;98451.13;2105020;28;20455;-80
2021/06/21 00:58:04;;;;;;;24.63;22.53;;;;;;;19.82;nan;98454.28;2104960;28;20459;-79
2021/06/21 00:59:04;;;;;;;24.33;22.53;;;;;;;19.75;nan;98422.50;2103812;28;20239;-79
2021/06/21 01:00:09;;;;;;;25.60;23.20;;;;;;;19.76;nan;98446.47;2095888;28;20444;-80
2021/06/21 01:01:10;;;;;;;26.03;23.57;;;;;;;19.70;nan;98442.53;2095846;28;20253;-79
2021/06/21 01:02:16;;;;;;;25.27;23.27;;;;;;;19.68;nan;98441.38;2104047;28;20535;-79
2021/06/21 01:03:19;;;;;;;26.07;23.57;;;;;;;19.67;nan;98432.47;2104083;28;20255;-79
2021/06/21 01:04:20;;;;;;;26.90;24.40;;;;;;;19.67;nan;98453.34;2104153;28;20428;-79
2021/06/21 01:05:23;;;;;;;26.47;24.17;;;;;;;19.60;nan;98442.44;2104972;28;20450;-79
2021/06/21 01:06:26;;;;;;;26.63;24.53;;;;;;;19.62;nan;98440.91;2103713;28;20456;-79
2021/06/21 01:07:27;;;;;;;27.67;23.57;;;;;;;19.57;nan;98424.25;2096045;28;24866;-79
2021/06/21 01:08:29;;;;;;;26.37;23.80;;;;;;;19.59;nan;98430.84;2095221;28;20836;-79
2021/06/21 01:09:30;;;;;;;27.43;24.87;;;;;;;19.61;nan;98433.94;2104216;28;20336;-80
2021/06/21 01:10:32;;;;;;;26.07;23.53;;;;;;;19.58;nan;98423.88;2095715;28;20453;-79
2021/06/21 01:11:50;;;;;;;25.67;23.67;;;;;;;19.58;nan;98423.09;2096014;28;20775;-79
2021/06/21 01:13:04;;;;;;;26.70;24.17;;;;;;;19.55;nan;98430.00;2104229;28;20458;-79
2021/06/21 01:14:08;;;;;;;27.03;24.77;;;;;;;19.55;nan;98418.41;2104796;28;20526;-79
2021/06/21 01:15:11;;;;;;;26.07;23.90;;;;;;;19.70;nan;98426.28;2104588;28;20443;-79
2021/06/21 01:16:17;;;;;;;26.47;24.37;;;;;;;19.64;nan;98406.16;2104893;28;20468;-79
2021/06/21 01:17:21;;;;;;;25.70;23.53;;;;;;;19.61;nan;98417.69;2104964;28;20447;-79
2021/06/21 01:18:24;;;;;;;26.17;23.87;;;;;;;19.60;nan;98415.38;2104973;28;20471;-79
2021/06/21 01:19:45;;;;;;;25.30;23.20;;;;;;;19.60;nan;98416.16;2103921;28;20463;-79
2021/06/21 01:21:03;;;;;;;25.77;23.50;;;;;;;19.57;nan;98405.31;2103377;28;20485;-79
2021/06/21 01:22:56;;;;;;;26.27;24.13;;;;;;;19.66;nan;98408.47;2103976;28;20470;-80
2021/06/21 01:24:11;;;;;;;25.33;23.00;;;;;;;19.73;nan;98408.56;2067797;28;20474;-79
2021/06/21 01:25:28;;;;;;;26.37;23.87;;;;;;;19.68;nan;98409.66;2064979;28;20463;-79
2021/06/21 01:26:33;;;;;;;25.10;22.97;;;;;;;19.65;nan;98413.13;2065030;28;20456;-79
2021/06/21 01:27:52;;;;;;;26.37;24.10;;;;;;;19.66;nan;98397.66;2073006;28;20529;-79
2021/06/21 01:29:08;;;;;;;25.87;23.43;;;;;;;19.67;nan;98399.22;2080177;28;20458;-79
2021/06/21 01:30:11;;;;;;;26.30;23.53;;;;;;;19.64;nan;98406.16;2105236;28;20913;-79
2021/06/21 01:31:15;;;;;;;25.60;23.20;;;;;;;19.63;nan;98403.78;2096127;28;20448;-79
2021/06/21 01:32:26;;;;;;;25.50;23.30;;;;;;;19.62;nan;98399.53;2105714;28;20508;-79
2021/06/21 01:33:28;;;;;;;25.03;22.90;;;;;;;19.58;nan;98407.63;2105280;28;20920;-79
2021/06/21 01:34:30;;;;;;;26.37;23.67;;;;;;;19.60;nan;98377.50;2097459;28;20463;-79
2021/06/21 01:35:34;;;;;;;26.67;24.10;;;;;;;19.57;nan;98383.66;2105652;28;20466;-79
2021/06/21 01:36:35;;;;;;;26.07;23.77;;;;;;;19.54;nan;98384.34;2105609;28;20447;-79
2021/06/21 01:37:37;;;;;;;27.00;24.60;;;;;;;19.49;nan;98378.13;2097235;28;20447;-79
2021/06/21 01:38:40;;;;;;;26.37;24.13;;;;;;;19.50;nan;98384.31;2105403;28;20236;-79
2021/06/21 01:39:44;;;;;;;26.80;24.20;;;;;;;19.45;nan;98387.34;2105499;28;20880;-79
2021/06/21 01:40:47;;;;;;;24.93;22.83;;;;;;;19.40;nan;98372.25;2097354;28;20509;-79
2021/06/21 01:41:53;;;;;;;25.93;23.27;;;;;;;19.38;nan;98381.91;2105706;28;20443;-79
2021/06/21 01:42:56;;;;;;;25.73;23.37;;;;;;;19.37;nan;98381.13;2104959;28;20466;-79
2021/06/21 01:44:00;;;;;;;25.00;22.80;;;;;;;19.34;nan;98386.47;2105643;28;20467;-79
2021/06/21 01:45:03;;;;;;;26.37;23.87;;;;;;;19.28;nan;98372.50;2106361;28;20444;-79
2021/06/21 01:46:07;;;;;;;28.17;23.13;;;;;;;19.25;nan;98372.47;2106214;28;20461;-79
2021/06/21 01:47:08;;;;;;;25.63;23.53;;;;;;;19.26;nan;98387.53;2105917;28;20463;-79
2021/06/21 01:48:12;;;;;;;25.27;22.97;;;;;;;19.25;nan;98370.53;2106319;28;20475;-78
2021/06/21 01:49:17;;;;;;;25.30;23.20;;;;;;;19.25;nan;98391.41;2105123;28;20447;-79
2021/06/21 01:50:21;;;;;;;25.17;23.27;;;;;;;19.22;nan;98384.81;2097769;28;20464;-79
2021/06/21 01:51:23;;;;;;;26.70;24.23;;;;;;;19.23;nan;98391.78;2105579;28;20493;-79
2021/06/21 01:52:26;;;;;;;25.00;22.80;;;;;;;19.22;nan;98387.50;2105944;28;20859;-79
2021/06/21 01:53:28;;;;;;;26.13;23.57;;;;;;;19.18;nan;98383.97;2105405;28;20506;-79
2021/06/21 01:54:32;;;;;;;26.07;23.57;;;;;;;19.21;nan;98394.06;2105533;28;20957;-79
2021/06/21 01:55:34;;;;;;;26.83;24.20;;;;;;;19.23;nan;98397.19;2105232;28;20448;-79
2021/06/21 01:56:38;;;;;;;26.47;24.00;;;;;;;19.22;nan;98394.84;2105474;28;20448;-79
2021/06/21 01:57:39;;;;;;;25.50;23.20;;;;;;;19.21;nan;98399.47;2104961;28;20452;-78
2021/06/21 01:58:41;;;;;;;25.63;22.97;;;;;;;19.23;nan;98396.41;2105657;28;20462;-79
2021/06/21 01:59:43;;;;;;;24.83;22.63;;;;;;;19.21;nan;98399.47;2105126;28;20456;-79
2021/06/21 02:00:46;;;;;;;26.33;23.47;;;;;;;19.18;nan;98394.78;2105528;28;20472;-79
2021/06/21 02:01:47;;;;;;;25.43;23.23;;;;;;;19.20;nan;98404.13;2105345;28;20452;-79
2021/06/21 02:02:50;;;;;;;26.37;24.03;;;;;;;19.20;nan;98398.69;2105524;28;20479;-79
2021/06/21 02:03:54;;;;;;;26.13;23.63;;;;;;;19.17;nan;98394.00;2106329;28;20679;-79
2021/06/21 02:04:57;;;;;;;26.20;23.63;;;;;;;19.21;nan;98396.78;2105848;28;20562;-79
2021/06/21 02:05:58;;;;;;;24.83;22.77;;;;;;;19.20;nan;98398.69;2105004;28;20456;-79
2021/06/21 02:07:02;;;;;;;26.03;23.27;;;;;;;19.21;nan;98388.66;2096325;28;20541;-79
2021/06/21 02:08:04;;;;;;;24.87;22.83;;;;;;;19.20;nan;98381.69;2105383;28;20455;-78
2021/06/21 02:09:09;;;;;;;25.23;23.13;;;;;;;19.23;nan;98385.59;2104920;28;20442;-79
2021/06/21 02:10:12;;;;;;;26.30;23.70;;;;;;;19.23;nan;98396.41;2104873;28;20544;-79
2021/06/21 02:11:14;;;;;;;26.33;23.87;;;;;;;19.21;nan;98372.44;2105390;28;20455;-79
2021/06/21 02:12:18;;;;;;;25.73;23.40;;;;;;;19.27;nan;98400.69;2105117;28;20456;-79
2021/06/21 02:13:21;;;;;;;26.03;23.67;;;;;;;19.26;nan;98401.84;2105314;28;20451;-79
2021/06/21 02:14:25;;;;;;;25.30;22.90;;;;;;;19.32;nan;98394.19;2097131;28;20989;-78
2021/06/21 02:15:28;;;;;;;27.27;24.53;;;;;;;19.31;nan;98387.22;2105259;28;20454;-78
2021/06/21 02:16:29;;;;;;;26.07;23.43;;;;;;;19.37;nan;98391.13;2105172;28;20515;-78
2021/06/21 02:17:31;;;;;;;25.83;23.33;;;;;;;19.41;nan;98387.31;2096911;28;20451;-80
2021/06/21 02:18:34;;;;;;;24.43;22.40;;;;;;;19.43;nan;98384.25;2105433;28;20447;-78
2021/06/21 02:19:37;;;;;;;25.10;22.60;;;;;;;19.51;nan;98380.47;2106113;28;20542;-79
2021/06/21 02:20:38;;;;;;;24.33;22.30;;;;;;;19.57;nan;98378.25;2105489;28;20979;-78
2021/06/21 02:21:40;;;;;;;25.13;22.87;;;;;;;19.58;nan;98385.22;2105039;28;20456;-79
2021/06/21 02:22:41;;;;;;;25.23;22.90;;;;;;;19.61;nan;98384.44;2105334;28;20474;-79
2021/06/21 02:23:43;;;;;;;24.87;22.57;;;;;;;19.56;nan;98372.06;2106149;28;20459;-79
2021/06/21 02:24:44;;;;;;;25.07;22.90;;;;;;;19.58;nan;98369.75;2105267;28;20526;-79
2021/06/21 02:25:46;;;;;;;24.80;22.73;;;;;;;19.61;nan;98379.03;2105356;28;20432;-79
2021/06/21 02:26:47;;;;;;;25.00;22.73;;;;;;;19.55;nan;98375.09;2106191;28;20217;-79
2021/06/21 02:27:49;;;;;;;24.53;22.43;;;;;;;19.62;nan;98365.13;2105151;28;20534;-79
2021/06/21 02:28:51;;;;;;;26.03;23.50;;;;;;;19.66;nan;98365.97;2096404;28;20506;-79
2021/06/21 02:29:55;;;;;;;25.60;23.53;;;;;;;19.72;nan;98374.50;2097023;28;20457;-79
2021/06/21 02:30:58;;;;;;;25.77;23.40;;;;;;;19.65;nan;98369.81;2104932;28;20953;-79
2021/06/21 02:31:59;;;;;;;25.83;22.93;;;;;;;19.56;nan;98365.84;2106094;28;20455;-79
2021/06/21 02:33:01;;;;;;;25.13;23.07;;;;;;;19.70;nan;98369.47;2105985;28;21021;-79
2021/06/21 02:34:02;;;;;;;25.57;23.27;;;;;;;19.66;nan;98381.41;2106012;28;20676;-79
2021/06/21 02:35:06;;;;;;;25.60;23.43;;;;;;;19.70;nan;98372.16;2105405;28;20867;-79
2021/06/21 02:36:07;;;;;;;24.60;22.47;;;;;;;19.68;nan;98376.41;2096953;28;20711;-79
2021/06/21 02:37:10;;;;;;;25.20;23.20;;;;;;;19.60;nan;98378.25;2104851;28;21012;-78
2021/06/21 02:38:11;;;;;;;26.20;23.60;;;;;;;19.52;nan;98373.13;2105147;28;20225;-79
2021/06/21 02:39:13;;;;;;;26.00;23.67;;;;;;;19.49;nan;98377.34;2096347;28;20510;-79
2021/06/21 02:40:15;;;;;;;25.27;23.03;;;;;;;19.46;nan;98372.69;2105204;28;20247;-79
2021/06/21 02:41:17;;;;;;;25.87;23.67;;;;;;;19.46;nan;98378.13;2104690;28;20520;-79
2021/06/21 02:42:18;;;;;;;26.97;24.30;;;;;;;19.38;nan;98354.84;2105042;28;20768;-79
2021/06/21 02:43:20;;;;;;;26.47;23.97;;;;;;;19.38;nan;98371.06;2105846;28;20466;-79
2021/06/21 02:44:21;;;;;;;26.10;23.80;;;;;;;19.41;nan;98378.44;2105940;28;20942;-79
2021/06/21 02:45:22;;;;;;;26.27;23.97;;;;;;;19.43;nan;98371.50;2106000;28;20795;-79
2021/06/21 02:46:23;;;;;;;26.67;24.23;;;;;;;19.42;nan;98367.25;2104719;28;20236;-79
2021/06/21 02:47:25;;;;;;;25.63;23.43;;;;;;;19.44;nan;98375.75;2105214;28;20448;-79
2021/06/21 02:48:26;;;;;;;26.70;24.27;;;;;;;19.47;nan;98374.25;2104293;28;20226;-79
2021/06/21 02:49:27;;;;;;;25.80;23.40;;;;;;;19.49;nan;98356.50;2096623;28;20449;-79
2021/06/21 02:50:30;;;;;;;25.27;23.17;;;;;;;19.59;nan;98363.19;2105022;28;20225;-79
2021/06/21 02:51:35;;;;;;;26.17;23.97;;;;;;;19.61;nan;98373.63;2104941;28;20487;-79
2021/06/21 02:52:43;;;;;;;26.53;24.10;;;;;;;19.60;nan;98356.63;2105149;28;20455;-79
2021/06/21 02:53:50;;;;;;;27.83;25.20;;;;;;;19.54;nan;98370.81;2105499;28;20467;-79
2021/06/21 02:55:06;;;;;;;27.83;25.37;;;;;;;19.38;nan;98354.84;2105925;28;20451;-79
2021/06/21 02:56:11;;;;;;;28.00;25.47;;;;;;;19.36;nan;98367.94;2104007;28;20490;-79
2021/06/21 02:57:17;;;;;;;27.77;25.20;;;;;;;19.28;nan;98366.31;2096278;28;20495;-79
2021/06/21 02:58:21;;;;;;;27.50;24.80;;;;;;;19.24;nan;98366.28;2105134;28;20448;-79
2021/06/21 02:59:23;;;;;;;28.10;25.60;;;;;;;19.17;nan;98366.97;2105943;28;20444;-79
2021/06/21 03:00:26;;;;;;;29.17;26.40;;;;;;;19.12;nan;98375.44;2105377;28;20513;-79
2021/06/21 03:01:26;;;;;;;27.87;25.50;;;;;;;19.06;nan;98376.13;2104684;28;20474;-80
2021/06/21 03:02:29;;;;;;;27.07;24.87;;;;;;;19.04;nan;98362.19;2096581;28;20460;-79
2021/06/21 03:03:32;;;;;;;27.90;25.40;;;;;;;19.02;nan;98386.88;2105091;28;20455;-80
2021/06/21 03:04:35;;;;;;;27.77;25.27;;;;;;;18.98;nan;98377.97;2104772;28;20549;-79
2021/06/21 03:05:38;;;;;;;27.30;24.70;;;;;;;18.93;nan;98384.44;2105051;28;20447;-79
2021/06/21 03:06:41;;;;;;;27.37;24.53;;;;;;;18.90;nan;98373.59;2105237;28;20539;-79
2021/06/21 03:07:42;;;;;;;30.30;26.30;;;;;;;18.87;nan;98385.94;2104848;28;20475;-79
2021/06/21 03:08:44;;;;;;;28.60;26.07;;;;;;;18.81;nan;98365.78;2104947;28;20953;-79
2021/06/21 03:09:47;;;;;;;28.67;26.00;;;;;;;18.81;nan;98381.22;2104200;28;20231;-79
2021/06/21 03:10:50;;;;;;;28.10;25.53;;;;;;;18.82;nan;98377.38;2104789;28;20521;-79
2021/06/21 03:11:52;;;;;;;27.90;25.50;;;;;;;18.78;nan;98374.63;2104932;28;20447;-80
2021/06/21 03:12:56;;;;;;;28.77;26.07;;;;;;;18.75;nan;98377.28;2095474;28;20935;-78
2021/06/21 03:13:57;;;;;;;28.93;26.27;;;;;;;18.75;nan;98383.44;2104440;28;20873;-79
2021/06/21 03:14:59;;;;;;;28.53;25.83;;;;;;;18.74;nan;98381.13;2113291;28;20451;-79
2021/06/21 03:16:00;;;;;;;29.23;26.50;;;;;;;18.72;nan;98378.00;2105825;28;20220;-79
2021/06/21 03:17:06;;;;;;;28.07;25.70;;;;;;;18.69;nan;98379.53;2105627;28;20472;-79
2021/06/21 03:18:08;;;;;;;28.80;26.27;;;;;;;18.71;nan;98371.06;2105723;28;20213;-79
2021/06/21 03:19:11;;;;;;;31.70;26.40;;;;;;;18.74;nan;98397.34;2103981;28;20451;-79
2021/06/21 03:20:14;;;;;;;28.93;25.93;;;;;;;18.75;nan;98393.50;2104910;28;20976;-79
2021/06/21 03:21:18;;;;;;;27.57;25.27;;;;;;;18.75;nan;98398.91;2105542;28;20819;-79
2021/06/21 03:22:21;;;;;;;28.50;25.83;;;;;;;18.79;nan;98399.72;2105708;28;20443;-79
2021/06/21 03:23:22;;;;;;;27.50;24.97;;;;;;;18.79;nan;98395.09;2104791;28;20807;-79
2021/06/21 03:24:25;;;;;;;29.23;26.37;;;;;;;18.81;nan;98397.44;2104537;28;20451;-79
2021/06/21 03:25:26;;;;;;;29.37;26.50;;;;;;;18.82;nan;98399.00;2105672;28;21008;-79
2021/06/21 03:26:30;;;;;;;28.03;25.63;;;;;;;18.82;nan;98388.19;2105541;28;20458;-79
2021/06/21 03:27:32;;;;;;;28.90;26.23;;;;;;;18.89;nan;98393.69;2105545;28;20443;-79
2021/06/21 03:28:34;;;;;;;28.77;25.73;;;;;;;18.86;nan;98383.63;2105521;28;20812;-79
2021/06/21 03:29:36;;;;;;;28.90;26.10;;;;;;;18.89;nan;98388.28;2103985;28;20464;-80
2021/06/21 03:30:41;;;;;;;29.03;25.73;;;;;;;18.99;nan;98393.03;2096420;28;20456;-79
2021/06/21 03:31:43;;;;;;;29.40;26.40;;;;;;;19.01;nan;98396.13;2104648;28;20479;-79
2021/06/21 03:32:48;;;;;;;27.27;24.67;;;;;;;19.04;nan;98394.66;2105459;28;20792;-79
2021/06/21 03:33:49;;;;;;;28.07;25.47;;;;;;;19.10;nan;98393.16;2105465;28;20451;-79
2021/06/21 03:34:50;;;;;;;28.37;25.77;;;;;;;19.06;nan;98387.72;2105306;28;20483;-79
2021/06/21 03:35:51;;;;;;;28.27;25.50;;;;;;;19.11;nan;98394.72;2105547;28;20216;-79
2021/06/21 03:36:55;;;;;;;28.20;25.50;;;;;;;19.11;nan;98390.09;2105114;28;20459;-78
2021/06/21 03:37:55;;;;;;;28.93;26.03;;;;;;;19.10;nan;98383.09;2104326;28;20883;-79
2021/06/21 03:38:57;;;;;;;28.10;25.17;;;;;;;19.07;nan;98378.44;2104616;28;20532;-79
2021/06/21 03:39:58;;;;;;;28.07;25.60;;;;;;;19.11;nan;98389.28;2105461;28;20217;-79
2021/06/21 03:41:01;;;;;;;28.73;26.03;;;;;;;19.13;nan;98392.44;2104648;28;20497;-79
2021/06/21 03:42:03;;;;;;;28.23;25.67;;;;;;;19.09;nan;98376.16;2104422;28;20241;-79
2021/06/21 03:43:05;;;;;;;27.20;24.77;;;;;;;19.22;nan;98384.81;2104698;28;20451;-79
2021/06/21 03:44:06;;;;;;;29.37;26.57;;;;;;;19.26;nan;98382.91;2104717;28;20802;-79
2021/06/21 03:45:09;;;;;;;28.63;25.83;;;;;;;19.26;nan;98382.13;2104808;28;20452;-79
2021/06/21 03:46:10;;;;;;;27.30;24.80;;;;;;;19.27;nan;98386.38;2105171;28;20228;-79
2021/06/21 03:47:12;;;;;;;27.53;25.17;;;;;;;19.26;nan;98376.72;2105055;28;20462;-79
2021/06/21 03:48:13;;;;;;;27.87;25.13;;;;;;;19.24;nan;98371.69;2104994;28;20707;-79
2021/06/21 03:49:14;;;;;;;27.97;25.43;;;;;;;19.26;nan;98374.00;2104114;28;20797;-79
2021/06/21 03:50:15;;;;;;;27.67;25.07;;;;;;;19.27;nan;98380.97;2096200;28;20226;-79
2021/06/21 03:51:18;;;;;;;27.50;24.93;;;;;;;19.30;nan;98382.97;2104547;28;20981;-80
2021/06/21 03:52:20;;;;;;;27.40;24.93;;;;;;;19.35;nan;98383.38;2103664;28;20217;-79
2021/06/21 03:53:24;;;;;;;27.47;24.97;;;;;;;19.37;nan;98386.53;2104653;28;20452;-79
2021/06/21 03:54:24;;;;;;;28.37;25.67;;;;;;;19.40;nan;98395.81;2105009;28;20467;-78
2021/06/21 03:55:26;;;;;;;29.30;25.07;;;;;;;19.39;nan;98396.97;2104184;28;20492;-78
2021/06/21 03:56:27;;;;;;;27.90;25.47;;;;;;;19.41;nan;98403.56;2104631;28;20225;-79
2021/06/21 03:57:29;;;;;;;27.80;25.47;;;;;;;19.41;nan;98397.38;2104487;28;20471;-78
2021/06/21 03:58:31;;;;;;;27.73;25.10;;;;;;;19.41;nan;98394.66;2104673;28;20225;-79
2021/06/21 03:59:32;;;;;;;27.63;24.97;;;;;;;19.37;nan;98380.31;2103775;28;20444;-78
2021/06/21 04:00:35;;;;;;;27.43;24.83;;;;;;;19.41;nan;98397.38;2096136;28;20449;-78
2021/06/21 04:01:36;;;;;;;27.17;24.87;;;;;;;19.38;nan;98388.06;2096464;28;20979;-79
2021/06/21 04:02:38;;;;;;;26.30;23.90;;;;;;;19.45;nan;98381.94;2104530;28;20471;-78
2021/06/21 04:03:39;;;;;;;27.37;24.97;;;;;;;19.46;nan;98383.53;2104120;28;20230;-79
2021/06/21 04:04:41;;;;;;;27.23;24.80;;;;;;;19.48;nan;98392.81;2104139;28;20443;-79
2021/06/21 04:05:43;;;;;;;27.10;24.73;;;;;;;19.49;nan;98393.59;2104646;28;20736;-79
2021/06/21 04:06:44;;;;;;;26.70;24.50;;;;;;;19.50;nan;98395.16;2104577;28;20452;-79
2021/06/21 04:07:47;;;;;;;27.93;25.33;;;;;;;19.52;nan;98397.47;2104586;28;20519;-79
2021/06/21 04:08:48;;;;;;;27.70;25.10;;;;;;;19.51;nan;98390.50;2104418;28;20601;-79
2021/06/21 04:09:50;;;;;;;30.37;25.17;;;;;;;19.49;nan;98382.78;2095716;28;20478;-79
2021/06/21 04:10:51;;;;;;;27.50;24.73;;;;;;;19.54;nan;98401.34;2104375;28;20679;-79
2021/06/21 04:11:52;;;;;;;28.13;25.27;;;;;;;19.55;nan;98397.53;2105361;28;20862;-79
2021/06/21 04:12:54;;;;;;;27.47;24.83;;;;;;;19.56;nan;98398.31;2104057;28;20467;-78
2021/06/21 04:13:56;;;;;;;27.23;24.60;;;;;;;19.59;nan;98398.34;2104477;28;20444;-79
2021/06/21 04:14:57;;;;;;;27.03;24.30;;;;;;;19.60;nan;98394.50;2104414;28;20519;-79
2021/06/21 04:15:58;;;;;;;27.20;24.67;;;;;;;19.62;nan;98403.03;2104684;28;20868;-79
2021/06/21 04:16:59;;;;;;;28.27;25.27;;;;;;;19.62;nan;98396.84;2105085;28;20463;-79
2021/06/21 04:18:03;;;;;;;27.50;24.93;;;;;;;19.61;nan;98395.28;2104992;28;20456;-79
2021/06/21 04:19:04;;;;;;;28.37;25.33;;;;;;;19.67;nan;98405.41;2105267;28;20217;-79
2021/06/21 04:20:08;;;;;;;27.43;25.23;;;;;;;19.70;nan;98410.06;2105152;28;20443;-80
2021/06/21 04:21:09;;;;;;;27.80;25.27;;;;;;;19.71;nan;98403.50;2105012;28;20228;-79
2021/06/21 04:22:11;;;;;;;27.07;24.87;;;;;;;19.72;nan;98409.69;2104256;28;20464;-79
2021/06/21 04:23:13;;;;;;;28.37;25.90;;;;;;;19.73;nan;98393.09;2104387;28;20516;-79
2021/06/21 04:24:15;;;;;;;28.63;25.97;;;;;;;19.78;nan;98408.19;2105133;28;20447;-80
2021/06/21 04:25:17;;;;;;;28.03;25.20;;;;;;;19.81;nan;98403.97;2104035;28;20462;-79
2021/06/21 04:26:18;;;;;;;27.63;25.27;;;;;;;19.82;nan;98416.38;2104445;28;20481;-79
2021/06/21 04:27:19;;;;;;;27.93;25.17;;;;;;;19.87;nan;98413.31;2104446;28;20443;-79
2021/06/21 04:28:21;;;;;;;27.70;25.13;;;;;;;19.86;nan;98395.50;2104467;28;20471;-79
2021/06/21 04:29:23;;;;;;;26.97;24.67;;;;;;;19.86;nan;98392.81;2103778;28;20221;-79
2021/06/21 04:30:25;;;;;;;27.33;25.07;;;;;;;19.89;nan;98398.25;2104144;28;20444;-79
2021/06/21 04:31:26;;;;;;;29.40;26.30;;;;;;;19.92;nan;98411.03;2104280;28;20792;-79
2021/06/21 04:32:28;;;;;;;27.73;25.23;;;;;;;19.89;nan;98400.16;2104382;28;20459;-79
2021/06/21 04:33:29;;;;;;;27.70;25.23;;;;;;;19.95;nan;98404.88;2105076;28;20221;-79
2021/06/21 04:34:31;;;;;;;27.17;24.73;;;;;;;19.97;nan;98402.56;2104284;28;20447;-79
2021/06/21 04:35:32;;;;;;;27.37;25.03;;;;;;;19.96;nan;98389.41;2104384;28;20225;-79
2021/06/21 04:36:33;;;;;;;27.43;24.97;;;;;;;19.99;nan;98394.09;2112798;28;20431;-79
2021/06/21 04:37:34;;;;;;;28.10;25.33;;;;;;;20.03;nan;98401.06;2104295;28;20221;-79
2021/06/21 04:38:38;;;;;;;27.40;24.83;;;;;;;19.97;nan;98397.16;2095644;28;20523;-80
2021/06/21 04:39:38;;;;;;;27.40;24.83;;;;;;;20.01;nan;98383.66;2103986;28;20332;-79
2021/06/21 04:40:40;;;;;;;26.73;24.50;;;;;;;20.06;nan;98394.13;2104990;28;20455;-79
2021/06/21 04:41:41;;;;;;;27.63;24.87;;;;;;;20.05;nan;98387.16;2105077;28;20217;-78
2021/06/21 04:42:43;;;;;;;29.20;25.00;;;;;;;20.09;nan;98398.81;2104956;28;20479;-79
2021/06/21 04:43:44;;;;;;;26.60;24.43;;;;;;;20.13;nan;98398.81;2103914;28;20470;-79
2021/06/21 04:44:46;;;;;;;27.17;24.50;;;;;;;20.15;nan;98397.28;2096007;28;20464;-79
2021/06/21 04:45:47;;;;;;;28.23;25.47;;;;;;;20.17;nan;98400.41;2095601;28;20245;-79
2021/06/21 04:46:49;;;;;;;27.47;24.80;;;;;;;20.19;nan;98405.47;2095761;28;20492;-79
2021/06/21 04:47:50;;;;;;;27.80;25.17;;;;;;;20.20;nan;98405.06;2095951;28;20229;-79
2021/06/21 04:48:52;;;;;;;27.57;24.57;;;;;;;20.25;nan;98406.66;2104275;28;20538;-79
2021/06/21 04:49:54;;;;;;;27.63;24.17;;;;;;;20.28;nan;98405.91;2104777;28;20229;-78
2021/06/21 04:50:56;;;;;;;26.47;24.17;;;;;;;20.31;nan;98405.16;2104251;28;20478;-79
2021/06/21 04:51:58;;;;;;;26.80;24.23;;;;;;;20.35;nan;98395.13;2096006;28;20997;-79
2021/06/21 04:53:00;;;;;;;26.73;24.03;;;;;;;20.36;nan;98406.75;2104263;28;20457;-79
2021/06/21 04:54:02;;;;;;;26.03;23.70;;;;;;;20.41;nan;98399.03;2104388;28;20444;-79
2021/06/21 04:55:04;;;;;;;25.43;23.00;;;;;;;20.42;nan;98400.59;2104356;28;20451;-79
2021/06/21 04:56:06;;;;;;;26.60;23.20;;;;;;;20.46;nan;98417.69;2104170;28;20455;-79